sensor_id;sensor_type;location;lat;lon;timestamp;pressure;altitude;pressure_sealevel;temperature;humidity
77323;BME280;66384;51.052;9.850;2023-08-01T00:01:29;97261.27;;;16.82;77.46
77323;BME280;66384;51.052;9.850;2023-08-01T00:04:01;97253.85;;;16.79;77.55
77323;BME280;66384;51.052;9.850;2023-08-01T00:06:33;97244.02;;;16.76;77.68
77323;BME280;66384;51.052;9.850;2023-08-01T00:09:05;97236.77;;;16.74;77.85
77323;BME280;66384;51.052;9.850;2023-08-01T00:11:36;97236.24;;;16.74;77.86
77323;BME280;66384;51.052;9.850;2023-08-01T00:14:08;97230.39;;;16.71;78.02
77323;BME280;66384;51.052;9.850;2023-08-01T00:16:39;97218.99;;;16.69;78.11
77323;BME280;66384;51.052;9.850;2023-08-01T00:19:11;97210.33;;;16.68;78.02
77323;BME280;66384;51.052;9.850;2023-08-01T00:21:43;97205.13;;;16.68;78.26
77323;BME280;66384;51.052;9.850;2023-08-01T00:24:15;97193.89;;;16.65;78.35
77323;BME280;66384;51.052;9.850;2023-08-01T00:26:47;97187.36;;;16.63;78.50
77323;BME280;66384;51.052;9.850;2023-08-01T00:29:18;97186.35;;;16.61;78.59
77323;BME280;66384;51.052;9.850;2023-08-01T00:31:50;97177.05;;;16.58;78.63
77323;BME280;66384;51.052;9.850;2023-08-01T00:34:22;97166.36;;;16.55;79.01
77323;BME280;66384;51.052;9.850;2023-08-01T00:36:53;97158.27;;;16.51;79.11
77323;BME280;66384;51.052;9.850;2023-08-01T00:39:25;97152.25;;;16.49;79.32
77323;BME280;66384;51.052;9.850;2023-08-01T00:41:56;97145.89;;;16.46;79.34
77323;BME280;66384;51.052;9.850;2023-08-01T00:44:28;97133.08;;;16.46;79.26
77323;BME280;66384;51.052;9.850;2023-08-01T00:46:59;97127.51;;;16.46;79.31
77323;BME280;66384;51.052;9.850;2023-08-01T00:49:31;97120.40;;;16.45;79.44
77323;BME280;66384;51.052;9.850;2023-08-01T00:52:06;97109.30;;;16.45;79.60
77323;BME280;66384;51.052;9.850;2023-08-01T00:54:38;97099.20;;;16.47;79.46
77323;BME280;66384;51.052;9.850;2023-08-01T00:57:10;97099.53;;;16.48;79.72
77323;BME280;66384;51.052;9.850;2023-08-01T00:59:41;97093.27;;;16.48;79.52
77323;BME280;66384;51.052;9.850;2023-08-01T01:02:13;97072.61;;;16.48;79.36
77323;BME280;66384;51.052;9.850;2023-08-01T01:04:44;97060.38;;;16.52;79.49
77323;BME280;66384;51.052;9.850;2023-08-01T01:07:18;97049.72;;;16.55;79.47
77323;BME280;66384;51.052;9.850;2023-08-01T01:09:51;97048.98;;;16.57;79.41
77323;BME280;66384;51.052;9.850;2023-08-01T01:12:22;97054.35;;;16.57;79.43
77323;BME280;66384;51.052;9.850;2023-08-01T01:14:54;97039.23;;;16.58;79.33
77323;BME280;66384;51.052;9.850;2023-08-01T01:17:25;97032.95;;;16.60;79.36
77323;BME280;66384;51.052;9.850;2023-08-01T01:19:57;97021.64;;;16.60;79.30
77323;BME280;66384;51.052;9.850;2023-08-01T01:22:29;97046.41;;;16.62;79.28
77323;BME280;66384;51.052;9.850;2023-08-01T01:25:02;97096.06;;;16.62;79.22
77323;BME280;66384;51.052;9.850;2023-08-01T01:28:09;97113.23;;;16.63;79.29
77323;BME280;66384;51.052;9.850;2023-08-01T01:30:57;97113.89;;;16.64;79.47
77323;BME280;66384;51.052;9.850;2023-08-01T01:33:29;97105.54;;;16.65;79.19
77323;BME280;66384;51.052;9.850;2023-08-01T01:36:02;97099.30;;;16.64;79.21
77323;BME280;66384;51.052;9.850;2023-08-01T01:38:34;97106.23;;;16.64;79.22
77323;BME280;66384;51.052;9.850;2023-08-01T01:41:06;97105.07;;;16.63;79.28
77323;BME280;66384;51.052;9.850;2023-08-01T01:43:37;97099.73;;;16.61;79.22
77323;BME280;66384;51.052;9.850;2023-08-01T01:46:09;97094.84;;;16.62;79.24
77323;BME280;66384;51.052;9.850;2023-08-01T01:48:40;97086.48;;;16.63;79.36
77323;BME280;66384;51.052;9.850;2023-08-01T01:51:12;97089.08;;;16.64;79.18
77323;BME280;66384;51.052;9.850;2023-08-01T01:53:44;97084.89;;;16.65;79.31
77323;BME280;66384;51.052;9.850;2023-08-01T01:56:15;97072.35;;;16.66;79.07
77323;BME280;66384;51.052;9.850;2023-08-01T01:58:47;97069.85;;;16.69;79.14
77323;BME280;66384;51.052;9.850;2023-08-01T02:01:18;97066.14;;;16.72;79.10
77323;BME280;66384;51.052;9.850;2023-08-01T02:03:50;97057.39;;;16.76;79.02
77323;BME280;66384;51.052;9.850;2023-08-01T02:06:21;97052.79;;;16.79;78.95
77323;BME280;66384;51.052;9.850;2023-08-01T02:08:53;97047.65;;;16.83;78.87
77323;BME280;66384;51.052;9.850;2023-08-01T02:11:25;97040.65;;;16.86;78.86
77323;BME280;66384;51.052;9.850;2023-08-01T02:13:57;97037.27;;;16.89;78.64
77323;BME280;66384;51.052;9.850;2023-08-01T02:16:29;97031.02;;;16.90;78.52
77323;BME280;66384;51.052;9.850;2023-08-01T02:19:01;97021.56;;;16.92;78.50
77323;BME280;66384;51.052;9.850;2023-08-01T02:21:32;97015.95;;;16.94;78.62
77323;BME280;66384;51.052;9.850;2023-08-01T02:24:05;97014.90;;;16.95;78.34
77323;BME280;66384;51.052;9.850;2023-08-01T02:26:36;97010.80;;;16.92;78.34
77323;BME280;66384;51.052;9.850;2023-08-01T02:29:08;97007.91;;;16.90;78.41
77323;BME280;66384;51.052;9.850;2023-08-01T02:31:40;97003.92;;;16.90;78.36
77323;BME280;66384;51.052;9.850;2023-08-01T02:34:11;97001.27;;;16.91;78.46
77323;BME280;66384;51.052;9.850;2023-08-01T02:36:43;97003.17;;;16.91;78.38
77323;BME280;66384;51.052;9.850;2023-08-01T02:39:14;96998.81;;;16.92;78.40
77323;BME280;66384;51.052;9.850;2023-08-01T02:41:46;96988.34;;;16.94;78.52
77323;BME280;66384;51.052;9.850;2023-08-01T02:44:18;96987.98;;;16.94;78.42
77323;BME280;66384;51.052;9.850;2023-08-01T02:46:49;96981.39;;;16.94;78.25
77323;BME280;66384;51.052;9.850;2023-08-01T02:49:21;96980.36;;;16.94;78.38
77323;BME280;66384;51.052;9.850;2023-08-01T02:51:53;96979.34;;;16.93;78.23
77323;BME280;66384;51.052;9.850;2023-08-01T02:54:24;96977.89;;;16.89;78.40
77323;BME280;66384;51.052;9.850;2023-08-01T02:56:56;96977.42;;;16.87;78.57
77323;BME280;66384;51.052;9.850;2023-08-01T02:59:28;96973.70;;;16.82;78.67
77323;BME280;66384;51.052;9.850;2023-08-01T03:01:59;96968.52;;;16.82;78.69
77323;BME280;66384;51.052;9.850;2023-08-01T03:04:31;96974.78;;;16.81;78.81
77323;BME280;66384;51.052;9.850;2023-08-01T03:07:16;96968.38;;;16.81;78.79
77323;BME280;66384;51.052;9.850;2023-08-01T03:09:48;96965.27;;;16.80;78.92
77323;BME280;66384;51.052;9.850;2023-08-01T03:12:20;96970.65;;;16.79;78.93
77323;BME280;66384;51.052;9.850;2023-08-01T03:14:52;96961.98;;;16.79;78.96
77323;BME280;66384;51.052;9.850;2023-08-01T03:17:23;96961.79;;;16.80;79.01
77323;BME280;66384;51.052;9.850;2023-08-01T03:19:55;96956.19;;;16.82;79.05
77323;BME280;66384;51.052;9.850;2023-08-01T03:22:27;96939.45;;;16.85;79.07
77323;BME280;66384;51.052;9.850;2023-08-01T03:24:59;96927.13;;;16.85;78.84
77323;BME280;66384;51.052;9.850;2023-08-01T03:27:30;96917.79;;;16.83;78.76
77323;BME280;66384;51.052;9.850;2023-08-01T03:30:03;96912.94;;;16.82;78.78
77323;BME280;66384;51.052;9.850;2023-08-01T03:32:39;96900.45;;;16.82;78.76
77323;BME280;66384;51.052;9.850;2023-08-01T03:35:11;96883.41;;;16.82;78.80
77323;BME280;66384;51.052;9.850;2023-08-01T03:37:44;96900.25;;;16.83;78.78
77323;BME280;66384;51.052;9.850;2023-08-01T03:40:16;96896.61;;;16.83;78.87
77323;BME280;66384;51.052;9.850;2023-08-01T03:42:47;96883.79;;;16.82;78.69
77323;BME280;66384;51.052;9.850;2023-08-01T03:45:19;96888.84;;;16.81;78.69
77323;BME280;66384;51.052;9.850;2023-08-01T03:47:51;96891.15;;;16.79;78.62
77323;BME280;66384;51.052;9.850;2023-08-01T03:50:23;96894.19;;;16.76;78.83
77323;BME280;66384;51.052;9.850;2023-08-01T03:52:55;96893.05;;;16.72;78.93
77323;BME280;66384;51.052;9.850;2023-08-01T03:55:26;96891.73;;;16.70;78.94
77323;BME280;66384;51.052;9.850;2023-08-01T03:57:58;96888.64;;;16.69;79.16
77323;BME280;66384;51.052;9.850;2023-08-01T04:00:30;96897.39;;;16.66;79.23
77323;BME280;66384;51.052;9.850;2023-08-01T04:03:03;96908.52;;;16.65;79.54
77323;BME280;66384;51.052;9.850;2023-08-01T04:05:34;96916.02;;;16.63;79.65
77323;BME280;66384;51.052;9.850;2023-08-01T04:08:06;96911.66;;;16.64;79.69
77323;BME280;66384;51.052;9.850;2023-08-01T04:10:38;96915.98;;;16.65;79.65
77323;BME280;66384;51.052;9.850;2023-08-01T04:13:09;96906.40;;;16.67;79.85
77323;BME280;66384;51.052;9.850;2023-08-01T04:15:41;96908.02;;;16.71;79.87
77323;BME280;66384;51.052;9.850;2023-08-01T04:18:13;96874.06;;;16.75;79.73
77323;BME280;66384;51.052;9.850;2023-08-01T04:20:44;96825.58;;;16.77;79.72
77323;BME280;66384;51.052;9.850;2023-08-01T04:23:17;96834.19;;;16.79;79.69
77323;BME280;66384;51.052;9.850;2023-08-01T04:25:48;96854.78;;;16.82;79.69
77323;BME280;66384;51.052;9.850;2023-08-01T04:28:20;96867.08;;;16.83;79.62
77323;BME280;66384;51.052;9.850;2023-08-01T04:30:52;96858.94;;;16.83;79.51
77323;BME280;66384;51.052;9.850;2023-08-01T04:33:24;96851.83;;;16.82;79.58
77323;BME280;66384;51.052;9.850;2023-08-01T04:35:55;96840.95;;;16.80;79.53
77323;BME280;66384;51.052;9.850;2023-08-01T04:38:27;96825.54;;;16.79;79.63
77323;BME280;66384;51.052;9.850;2023-08-01T04:40:59;96797.82;;;16.77;79.73
77323;BME280;66384;51.052;9.850;2023-08-01T04:43:30;96818.47;;;16.77;79.64
77323;BME280;66384;51.052;9.850;2023-08-01T04:46:02;96826.06;;;16.78;79.66
77323;BME280;66384;51.052;9.850;2023-08-01T04:48:34;96823.11;;;16.78;79.71
77323;BME280;66384;51.052;9.850;2023-08-01T04:51:05;96811.52;;;16.78;79.68
77323;BME280;66384;51.052;9.850;2023-08-01T04:53:37;96810.30;;;16.77;79.82
77323;BME280;66384;51.052;9.850;2023-08-01T04:56:08;96801.76;;;16.78;79.74
77323;BME280;66384;51.052;9.850;2023-08-01T04:58:40;96802.35;;;16.82;79.80
77323;BME280;66384;51.052;9.850;2023-08-01T05:01:12;96795.81;;;16.86;79.71
77323;BME280;66384;51.052;9.850;2023-08-01T05:03:44;96795.23;;;16.89;79.64
77323;BME280;66384;51.052;9.850;2023-08-01T05:06:15;96798.93;;;16.92;79.75
77323;BME280;66384;51.052;9.850;2023-08-01T05:08:47;96795.95;;;16.93;79.66
77323;BME280;66384;51.052;9.850;2023-08-01T05:11:19;96802.10;;;16.97;79.80
77323;BME280;66384;51.052;9.850;2023-08-01T05:13:51;96797.48;;;17.00;79.75
77323;BME280;66384;51.052;9.850;2023-08-01T05:16:23;96795.66;;;17.03;79.70
77323;BME280;66384;51.052;9.850;2023-08-01T05:18:55;96800.54;;;17.08;79.67
77323;BME280;66384;51.052;9.850;2023-08-01T05:21:26;96806.84;;;17.13;79.48
77323;BME280;66384;51.052;9.850;2023-08-01T05:23:58;96802.02;;;17.17;79.52
77323;BME280;66384;51.052;9.850;2023-08-01T05:26:30;96792.23;;;17.18;79.41
77323;BME280;66384;51.052;9.850;2023-08-01T05:29:01;96788.36;;;17.20;79.42
77323;BME280;66384;51.052;9.850;2023-08-01T05:31:34;96790.05;;;17.21;79.37
77323;BME280;66384;51.052;9.850;2023-08-01T05:34:06;96799.66;;;17.20;79.13
77323;BME280;66384;51.052;9.850;2023-08-01T05:36:37;96794.37;;;17.17;79.19
77323;BME280;66384;51.052;9.850;2023-08-01T05:39:09;96801.20;;;17.15;79.17
77323;BME280;66384;51.052;9.850;2023-08-01T05:41:44;96802.30;;;17.13;79.28
77323;BME280;66384;51.052;9.850;2023-08-01T05:44:16;96801.68;;;17.11;79.37
77323;BME280;66384;51.052;9.850;2023-08-01T05:46:50;96801.80;;;17.07;79.34
77323;BME280;66384;51.052;9.850;2023-08-01T05:49:24;96802.58;;;17.04;79.67
77323;BME280;66384;51.052;9.850;2023-08-01T05:51:56;96801.89;;;17.04;79.70
77323;BME280;66384;51.052;9.850;2023-08-01T05:54:28;96805.02;;;17.03;79.62
77323;BME280;66384;51.052;9.850;2023-08-01T05:57:00;96806.97;;;17.02;79.84
77323;BME280;66384;51.052;9.850;2023-08-01T05:59:31;96809.52;;;17.04;79.74
77323;BME280;66384;51.052;9.850;2023-08-01T06:02:04;96808.58;;;17.06;79.77
77323;BME280;66384;51.052;9.850;2023-08-01T06:04:35;96806.04;;;17.10;79.85
77323;BME280;66384;51.052;9.850;2023-08-01T06:07:09;96808.16;;;17.14;79.81
77323;BME280;66384;51.052;9.850;2023-08-01T06:09:41;96802.99;;;17.19;79.71
77323;BME280;66384;51.052;9.850;2023-08-01T06:12:12;96813.27;;;17.23;79.74
77323;BME280;66384;51.052;9.850;2023-08-01T06:14:44;96804.26;;;17.28;79.52
77323;BME280;66384;51.052;9.850;2023-08-01T06:17:16;96800.48;;;17.33;79.61
77323;BME280;66384;51.052;9.850;2023-08-01T06:19:47;96788.73;;;17.36;79.36
77323;BME280;66384;51.052;9.850;2023-08-01T06:22:20;96803.39;;;17.40;79.53
77323;BME280;66384;51.052;9.850;2023-08-01T06:24:54;96809.89;;;17.43;79.55
77323;BME280;66384;51.052;9.850;2023-08-01T06:27:26;96814.76;;;17.43;79.39
77323;BME280;66384;51.052;9.850;2023-08-01T06:29:58;96819.11;;;17.43;79.41
77323;BME280;66384;51.052;9.850;2023-08-01T06:32:29;96815.05;;;17.45;79.50
77323;BME280;66384;51.052;9.850;2023-08-01T06:35:01;96824.92;;;17.46;79.36
77323;BME280;66384;51.052;9.850;2023-08-01T06:37:36;96828.21;;;17.46;79.08
77323;BME280;66384;51.052;9.850;2023-08-01T06:40:09;96837.08;;;17.46;79.08
77323;BME280;66384;51.052;9.850;2023-08-01T06:42:41;96835.13;;;17.47;79.02
77323;BME280;66384;51.052;9.850;2023-08-01T06:45:13;96844.98;;;17.49;78.77
77323;BME280;66384;51.052;9.850;2023-08-01T06:47:45;96842.52;;;17.50;78.65
77323;BME280;66384;51.052;9.850;2023-08-01T06:50:17;96842.08;;;17.53;78.57
77323;BME280;66384;51.052;9.850;2023-08-01T06:52:51;96847.54;;;17.56;78.28
77323;BME280;66384;51.052;9.850;2023-08-01T06:55:23;96843.77;;;17.60;77.99
77323;BME280;66384;51.052;9.850;2023-08-01T06:57:55;96843.64;;;17.64;77.95
77323;BME280;66384;51.052;9.850;2023-08-01T07:00:27;96849.08;;;17.68;77.57
77323;BME280;66384;51.052;9.850;2023-08-01T07:02:59;96843.05;;;17.71;77.63
77323;BME280;66384;51.052;9.850;2023-08-01T07:05:31;96847.42;;;17.77;77.57
77323;BME280;66384;51.052;9.850;2023-08-01T07:08:03;96855.52;;;17.80;77.37
77323;BME280;66384;51.052;9.850;2023-08-01T07:10:39;96860.63;;;17.84;77.22
77323;BME280;66384;51.052;9.850;2023-08-01T07:13:11;96865.13;;;17.84;76.68
77323;BME280;66384;51.052;9.850;2023-08-01T07:15:43;96872.27;;;17.83;76.63
77323;BME280;66384;51.052;9.850;2023-08-01T07:18:15;96880.88;;;17.81;76.74
77323;BME280;66384;51.052;9.850;2023-08-01T07:20:47;96886.30;;;17.79;76.23
77323;BME280;66384;51.052;9.850;2023-08-01T07:23:18;96897.77;;;17.73;75.25
77323;BME280;66384;51.052;9.850;2023-08-01T07:25:53;96900.69;;;17.63;74.43
77323;BME280;66384;51.052;9.850;2023-08-01T07:28:24;96903.93;;;17.54;74.07
77323;BME280;66384;51.052;9.850;2023-08-01T07:31:01;96903.63;;;17.47;73.98
77323;BME280;66384;51.052;9.850;2023-08-01T07:33:35;96909.92;;;17.39;73.85
77323;BME280;66384;51.052;9.850;2023-08-01T07:36:07;96909.44;;;17.33;73.73
77323;BME280;66384;51.052;9.850;2023-08-01T07:38:38;96914.33;;;17.25;73.75
77323;BME280;66384;51.052;9.850;2023-08-01T07:41:10;96919.05;;;17.18;73.77
77323;BME280;66384;51.052;9.850;2023-08-01T07:43:42;96920.37;;;17.15;74.09
77323;BME280;66384;51.052;9.850;2023-08-01T07:46:13;96922.00;;;17.13;74.08
77323;BME280;66384;51.052;9.850;2023-08-01T07:48:45;96927.27;;;17.11;74.19
77323;BME280;66384;51.052;9.850;2023-08-01T07:51:16;96941.64;;;17.12;74.37
77323;BME280;66384;51.052;9.850;2023-08-01T07:53:48;96943.45;;;17.11;74.51
77323;BME280;66384;51.052;9.850;2023-08-01T07:56:22;96937.26;;;17.14;74.62
77323;BME280;66384;51.052;9.850;2023-08-01T07:58:54;96945.09;;;17.19;74.82
77323;BME280;66384;51.052;9.850;2023-08-01T08:01:25;96948.85;;;17.21;74.79
77323;BME280;66384;51.052;9.850;2023-08-01T08:03:57;96954.05;;;17.22;74.92
77323;BME280;66384;51.052;9.850;2023-08-01T08:06:32;96955.98;;;17.20;74.73
77323;BME280;66384;51.052;9.850;2023-08-01T08:09:04;96959.89;;;17.18;74.92
77323;BME280;66384;51.052;9.850;2023-08-01T08:11:37;96961.64;;;17.18;74.73
77323;BME280;66384;51.052;9.850;2023-08-01T08:14:09;96958.30;;;17.19;74.51
77323;BME280;66384;51.052;9.850;2023-08-01T08:16:42;96958.23;;;17.21;74.46
77323;BME280;66384;51.052;9.850;2023-08-01T08:19:16;96958.90;;;17.23;73.88
77323;BME280;66384;51.052;9.850;2023-08-01T08:21:47;96951.91;;;17.23;73.71
77323;BME280;66384;51.052;9.850;2023-08-01T08:24:19;96952.31;;;17.28;73.61
77323;BME280;66384;51.052;9.850;2023-08-01T08:26:51;96956.23;;;17.37;73.58
77323;BME280;66384;51.052;9.850;2023-08-01T08:29:23;96951.27;;;17.46;73.53
77323;BME280;66384;51.052;9.850;2023-08-01T08:31:55;96958.85;;;17.54;73.51
77323;BME280;66384;51.052;9.850;2023-08-01T08:34:26;96967.58;;;17.59;73.42
77323;BME280;66384;51.052;9.850;2023-08-01T08:36:58;96975.13;;;17.62;73.34
77323;BME280;66384;51.052;9.850;2023-08-01T08:39:29;96976.63;;;17.65;72.76
77323;BME280;66384;51.052;9.850;2023-08-01T08:42:01;96986.48;;;17.72;72.76
77323;BME280;66384;51.052;9.850;2023-08-01T08:44:39;96989.41;;;17.81;72.40
77323;BME280;66384;51.052;9.850;2023-08-01T08:47:17;96989.23;;;17.86;72.12
77323;BME280;66384;51.052;9.850;2023-08-01T08:49:49;96985.71;;;17.93;72.07
77323;BME280;66384;51.052;9.850;2023-08-01T08:52:21;96981.94;;;17.97;71.48
77323;BME280;66384;51.052;9.850;2023-08-01T08:54:54;96985.59;;;17.97;71.42
77323;BME280;66384;51.052;9.850;2023-08-01T08:57:26;96988.40;;;18.02;71.56
77323;BME280;66384;51.052;9.850;2023-08-01T08:59:59;96988.04;;;18.13;71.06
77323;BME280;66384;51.052;9.850;2023-08-01T09:02:31;96995.38;;;18.24;70.57
77323;BME280;66384;51.052;9.850;2023-08-01T09:05:05;96998.21;;;18.33;70.54
77323;BME280;66384;51.052;9.850;2023-08-01T09:07:42;96994.90;;;18.39;69.72
77323;BME280;66384;51.052;9.850;2023-08-01T09:10:16;96998.63;;;18.42;69.57
77323;BME280;66384;51.052;9.850;2023-08-01T09:12:48;97000.55;;;18.52;69.16
77323;BME280;66384;51.052;9.850;2023-08-01T09:15:20;97001.41;;;18.63;68.82
77323;BME280;66384;51.052;9.850;2023-08-01T09:17:54;97004.19;;;18.69;67.53
77323;BME280;66384;51.052;9.850;2023-08-01T09:20:36;97007.54;;;18.73;67.67
77323;BME280;66384;51.052;9.850;2023-08-01T09:23:11;97010.56;;;18.82;67.30
77323;BME280;66384;51.052;9.850;2023-08-01T09:25:43;97014.85;;;18.89;66.88
77323;BME280;66384;51.052;9.850;2023-08-01T09:28:19;97012.68;;;18.96;67.43
77323;BME280;66384;51.052;9.850;2023-08-01T09:30:53;97014.66;;;19.04;66.91
77323;BME280;66384;51.052;9.850;2023-08-01T09:33:36;97015.73;;;19.09;66.38
77323;BME280;66384;51.052;9.850;2023-08-01T09:36:08;97014.23;;;19.12;65.15
77323;BME280;66384;51.052;9.850;2023-08-01T09:38:40;97006.80;;;19.10;65.78
77323;BME280;66384;51.052;9.850;2023-08-01T09:41:18;97014.91;;;19.07;65.73
77323;BME280;66384;51.052;9.850;2023-08-01T09:43:51;97020.02;;;19.01;65.99
77323;BME280;66384;51.052;9.850;2023-08-01T09:46:23;97019.38;;;18.99;65.94
77323;BME280;66384;51.052;9.850;2023-08-01T09:48:55;97020.86;;;19.02;65.24
77323;BME280;66384;51.052;9.850;2023-08-01T09:51:26;97026.31;;;19.00;64.17
77323;BME280;66384;51.052;9.850;2023-08-01T09:53:58;97020.67;;;18.97;64.02
77323;BME280;66384;51.052;9.850;2023-08-01T09:56:30;97023.39;;;18.99;64.51
77323;BME280;66384;51.052;9.850;2023-08-01T09:59:02;97026.75;;;19.07;64.47
77323;BME280;66384;51.052;9.850;2023-08-01T10:01:34;97019.67;;;19.11;64.10
77323;BME280;66384;51.052;9.850;2023-08-01T10:04:08;97019.03;;;19.15;63.80
77323;BME280;66384;51.052;9.850;2023-08-01T10:06:45;97011.53;;;19.19;63.64
77323;BME280;66384;51.052;9.850;2023-08-01T10:09:19;97013.30;;;19.28;63.13
77323;BME280;66384;51.052;9.850;2023-08-01T10:11:51;97009.06;;;19.35;63.01
77323;BME280;66384;51.052;9.850;2023-08-01T10:14:23;97010.23;;;19.41;63.25
77323;BME280;66384;51.052;9.850;2023-08-01T10:16:55;97006.39;;;19.51;62.46
77323;BME280;66384;51.052;9.850;2023-08-01T10:19:27;97009.02;;;19.60;62.30
77323;BME280;66384;51.052;9.850;2023-08-01T10:22:04;97011.96;;;19.71;62.20
77323;BME280;66384;51.052;9.850;2023-08-01T10:24:38;97010.36;;;19.85;61.55
77323;BME280;66384;51.052;9.850;2023-08-01T10:27:15;97010.50;;;19.91;60.87
77323;BME280;66384;51.052;9.850;2023-08-01T10:29:57;97008.17;;;19.92;60.96
77323;BME280;66384;51.052;9.850;2023-08-01T10:32:37;97014.86;;;19.91;61.22
77323;BME280;66384;51.052;9.850;2023-08-01T10:35:09;97019.21;;;19.86;61.13
77323;BME280;66384;51.052;9.850;2023-08-01T10:37:42;97021.52;;;19.81;60.94
77323;BME280;66384;51.052;9.850;2023-08-01T10:40:14;97024.48;;;19.72;61.42
77323;BME280;66384;51.052;9.850;2023-08-01T10:42:46;97033.96;;;19.60;61.44
77323;BME280;66384;51.052;9.850;2023-08-01T10:45:25;97037.98;;;19.50;62.74
77323;BME280;66384;51.052;9.850;2023-08-01T10:48:10;97045.73;;;19.43;62.90
77323;BME280;66384;51.052;9.850;2023-08-01T10:50:42;97046.65;;;19.37;62.05
77323;BME280;66384;51.052;9.850;2023-08-01T10:53:13;97052.45;;;19.30;61.67
77323;BME280;66384;51.052;9.850;2023-08-01T10:55:46;97053.55;;;19.24;61.12
77323;BME280;66384;51.052;9.850;2023-08-01T10:58:19;97048.48;;;19.19;61.97
77323;BME280;66384;51.052;9.850;2023-08-01T11:00:58;97051.07;;;19.20;62.10
77323;BME280;66384;51.052;9.850;2023-08-01T11:03:37;97053.70;;;19.15;62.38
77323;BME280;66384;51.052;9.850;2023-08-01T11:06:09;97052.85;;;19.09;62.69
77323;BME280;66384;51.052;9.850;2023-08-01T11:08:42;97057.33;;;19.00;62.76
77323;BME280;66384;51.052;9.850;2023-08-01T11:11:15;97056.83;;;18.95;63.02
77323;BME280;66384;51.052;9.850;2023-08-01T11:13:54;97048.66;;;18.94;62.92
77323;BME280;66384;51.052;9.850;2023-08-01T11:16:27;97048.17;;;18.98;62.93
77323;BME280;66384;51.052;9.850;2023-08-01T11:19:00;97052.23;;;19.07;63.23
77323;BME280;66384;51.052;9.850;2023-08-01T11:21:31;97049.67;;;19.20;62.99
77323;BME280;66384;51.052;9.850;2023-08-01T11:24:08;97048.39;;;19.32;62.22
77323;BME280;66384;51.052;9.850;2023-08-01T11:26:43;97042.12;;;19.42;62.08
77323;BME280;66384;51.052;9.850;2023-08-01T11:29:16;97040.13;;;19.53;61.84
77323;BME280;66384;51.052;9.850;2023-08-01T11:31:55;97040.98;;;19.69;61.33
77323;BME280;66384;51.052;9.850;2023-08-01T11:34:27;97036.31;;;19.87;60.99
77323;BME280;66384;51.052;9.850;2023-08-01T11:36:58;97032.13;;;20.05;60.52
77323;BME280;66384;51.052;9.850;2023-08-01T11:39:30;97035.73;;;20.20;60.44
77323;BME280;66384;51.052;9.850;2023-08-01T11:42:03;97034.81;;;20.26;60.19
77323;BME280;66384;51.052;9.850;2023-08-01T11:44:34;97034.09;;;20.27;59.72
77323;BME280;66384;51.052;9.850;2023-08-01T11:47:12;97030.11;;;20.21;59.21
77323;BME280;66384;51.052;9.850;2023-08-01T11:49:48;97028.26;;;20.15;59.17
77323;BME280;66384;51.052;9.850;2023-08-01T11:52:27;97035.39;;;20.16;58.82
77323;BME280;66384;51.052;9.850;2023-08-01T11:54:59;97044.05;;;20.17;58.41
77323;BME280;66384;51.052;9.850;2023-08-01T11:57:30;97046.67;;;20.17;58.07
77323;BME280;66384;51.052;9.850;2023-08-01T12:00:02;97050.17;;;20.17;57.49
77323;BME280;66384;51.052;9.850;2023-08-01T12:02:35;97051.09;;;20.16;57.02
77323;BME280;66384;51.052;9.850;2023-08-01T12:05:08;97056.20;;;20.19;56.98
77323;BME280;66384;51.052;9.850;2023-08-01T12:07:40;97054.59;;;20.29;57.37
77323;BME280;66384;51.052;9.850;2023-08-01T12:10:12;97056.47;;;20.34;57.26
77323;BME280;66384;51.052;9.850;2023-08-01T12:12:46;97076.70;;;20.35;56.96
77323;BME280;66384;51.052;9.850;2023-08-01T12:15:18;97087.33;;;20.31;57.05
77323;BME280;66384;51.052;9.850;2023-08-01T12:17:49;97086.10;;;20.22;58.25
77323;BME280;66384;51.052;9.850;2023-08-01T12:20:21;97084.70;;;20.13;58.48
77323;BME280;66384;51.052;9.850;2023-08-01T12:22:53;97088.13;;;20.06;58.02
77323;BME280;66384;51.052;9.850;2023-08-01T12:25:24;97091.48;;;20.00;57.75
77323;BME280;66384;51.052;9.850;2023-08-01T12:27:56;97093.36;;;19.96;57.29
77323;BME280;66384;51.052;9.850;2023-08-01T12:30:28;97096.46;;;19.92;57.20
77323;BME280;66384;51.052;9.850;2023-08-01T12:32:59;97100.98;;;19.93;57.55
77323;BME280;66384;51.052;9.850;2023-08-01T12:35:31;97102.25;;;19.92;57.53
77323;BME280;66384;51.052;9.850;2023-08-01T12:38:03;97097.83;;;19.89;57.33
77323;BME280;66384;51.052;9.850;2023-08-01T12:40:35;97101.30;;;19.85;57.60
77323;BME280;66384;51.052;9.850;2023-08-01T12:43:06;97091.20;;;19.79;57.36
77323;BME280;66384;51.052;9.850;2023-08-01T12:45:38;97093.15;;;19.74;57.55
77323;BME280;66384;51.052;9.850;2023-08-01T12:48:09;97096.56;;;19.71;58.08
77323;BME280;66384;51.052;9.850;2023-08-01T12:50:44;97105.52;;;19.69;58.56
77323;BME280;66384;51.052;9.850;2023-08-01T12:53:17;97112.79;;;19.66;59.13
77323;BME280;66384;51.052;9.850;2023-08-01T12:55:50;97118.92;;;19.64;59.69
77323;BME280;66384;51.052;9.850;2023-08-01T12:58:24;97116.98;;;19.60;60.25
77323;BME280;66384;51.052;9.850;2023-08-01T13:01:01;97119.75;;;19.56;60.49
77323;BME280;66384;51.052;9.850;2023-08-01T13:03:34;97123.52;;;19.53;60.35
77323;BME280;66384;51.052;9.850;2023-08-01T13:06:05;97122.88;;;19.56;60.07
77323;BME280;66384;51.052;9.850;2023-08-01T13:08:37;97121.31;;;19.61;59.93
77323;BME280;66384;51.052;9.850;2023-08-01T13:11:12;97117.31;;;19.66;59.61
77323;BME280;66384;51.052;9.850;2023-08-01T13:13:45;97117.70;;;19.70;58.96
77323;BME280;66384;51.052;9.850;2023-08-01T13:16:16;97123.04;;;19.72;58.16
77323;BME280;66384;51.052;9.850;2023-08-01T13:18:48;97119.11;;;19.79;58.08
77323;BME280;66384;51.052;9.850;2023-08-01T13:21:20;97118.94;;;19.93;58.06
77323;BME280;66384;51.052;9.850;2023-08-01T13:23:53;97119.27;;;20.09;58.10
77323;BME280;66384;51.052;9.850;2023-08-01T13:26:24;97120.58;;;20.25;57.63
77323;BME280;66384;51.052;9.850;2023-08-01T13:28:56;97111.98;;;20.39;57.66